createdAt,value
2022-07-30T00:00:28.203Z,23.63
2022-07-30T00:02:56.398Z,23.58
2022-07-30T00:05:26.253Z,23.58
2022-07-30T00:07:54.368Z,23.56
2022-07-30T00:10:23.441Z,23.52
2022-07-30T00:12:51.862Z,23.50
2022-07-30T00:15:20.071Z,23.44
2022-07-30T00:17:49.318Z,23.45
2022-07-30T00:20:18.624Z,23.44
2022-07-30T00:22:48.401Z,23.38
2022-07-30T00:25:19.147Z,23.36
2022-07-30T00:27:47.603Z,23.37
2022-07-30T00:30:16.591Z,23.34
2022-07-30T00:32:45.644Z,23.26
2022-07-30T00:35:14.471Z,23.19
2022-07-30T00:37:42.694Z,23.17
2022-07-30T00:40:12.611Z,23.24
2022-07-30T00:42:42.640Z,23.21
2022-07-30T00:45:12.462Z,23.15
2022-07-30T00:47:41.261Z,23.21
2022-07-30T00:50:12.154Z,23.23
2022-07-30T00:52:41.175Z,23.21
2022-07-30T00:55:14.138Z,23.14
2022-07-30T00:57:43.932Z,23.10
2022-07-30T01:00:16.103Z,23.02
2022-07-30T01:02:44.952Z,22.97
2022-07-30T01:05:13.405Z,22.94
2022-07-30T01:07:41.763Z,22.93
2022-07-30T01:10:14.026Z,22.87
2022-07-30T01:12:43.478Z,22.81
2022-07-30T01:15:12.874Z,22.76
2022-07-30T01:17:41.133Z,22.72
2022-07-30T01:20:12.651Z,22.71
2022-07-30T01:22:56.747Z,22.68
2022-07-30T01:25:54.540Z,22.69
2022-07-30T01:28:27.751Z,22.66
2022-07-30T01:30:57.615Z,22.63
2022-07-30T01:33:27.858Z,22.60
2022-07-30T01:35:58.751Z,22.57
2022-07-30T01:38:34.991Z,22.57
2022-07-30T01:41:06.480Z,22.60
2022-07-30T01:43:37.584Z,22.66
2022-07-30T01:46:07.274Z,22.72
2022-07-30T01:48:38.332Z,22.69
2022-07-30T01:51:07.933Z,22.75
2022-07-30T01:53:39.682Z,22.81
2022-07-30T01:56:11.500Z,22.78
2022-07-30T01:58:41.790Z,22.73
2022-07-30T02:01:10.107Z,22.65
2022-07-30T02:03:39.143Z,22.51
2022-07-30T02:06:12.376Z,22.44
2022-07-30T02:08:43.056Z,22.39
2022-07-30T02:11:16.561Z,22.38
2022-07-30T02:13:51.815Z,22.32
2022-07-30T02:16:28.736Z,22.33
2022-07-30T02:19:06.190Z,22.35
2022-07-30T02:21:40.060Z,22.29
2022-07-30T02:24:27.108Z,22.28
2022-07-30T02:27:00.984Z,22.24
2022-07-30T02:29:33.930Z,22.25
2022-07-30T02:32:06.246Z,22.25
2022-07-30T02:34:38.521Z,22.33
2022-07-30T02:37:08.674Z,22.26
2022-07-30T02:39:38.741Z,22.16
2022-07-30T02:42:11.218Z,22.08
2022-07-30T02:44:41.948Z,22.03
2022-07-30T02:47:11.993Z,22.04
2022-07-30T02:49:41.871Z,21.99
2022-07-30T02:52:13.716Z,21.99
2022-07-30T02:54:44.320Z,21.94
2022-07-30T02:57:16.186Z,21.92
2022-07-30T02:59:45.956Z,21.95
2022-07-30T03:02:16.303Z,21.99
2022-07-30T03:04:45.971Z,22.01
2022-07-30T03:07:18.390Z,21.93
2022-07-30T03:09:50.983Z,21.88
2022-07-30T03:12:24.670Z,21.93
2022-07-30T03:14:54.023Z,22.08
2022-07-30T03:17:25.200Z,22.13
2022-07-30T03:19:56.240Z,22.16
2022-07-30T03:22:30.056Z,22.18
2022-07-30T03:25:03.155Z,22.23
2022-07-30T03:27:33.974Z,22.27
2022-07-30T03:30:03.723Z,22.26
2022-07-30T03:32:33.748Z,22.29
2022-07-30T03:35:06.402Z,22.34
2022-07-30T03:37:38.352Z,22.42
2022-07-30T03:40:08.147Z,22.52
2022-07-30T03:42:38.296Z,22.55
2022-07-30T03:45:08.356Z,22.59
2022-07-30T03:47:42.804Z,22.44
2022-07-30T03:50:12.795Z,22.65
2022-07-30T03:52:42.561Z,22.85
2022-07-30T03:55:13.223Z,23.00
2022-07-30T03:57:43.002Z,23.03
2022-07-30T04:00:15.864Z,22.87
2022-07-30T04:02:44.784Z,22.82
2022-07-30T04:05:13.301Z,22.86
2022-07-30T04:07:45.268Z,23.10
2022-07-30T04:10:14.584Z,23.10
2022-07-30T04:12:44.695Z,23.12
2022-07-30T04:16:37.424Z,23.31
2022-07-30T04:18:06.112Z,23.20
2022-07-30T04:20:41.202Z,23.23
2022-07-30T04:23:11.483Z,23.41
2022-07-30T04:25:41.356Z,23.59
2022-07-30T04:28:11.852Z,23.82
2022-07-30T04:30:40.300Z,23.99
2022-07-30T04:33:09.921Z,24.22
2022-07-30T04:35:51.557Z,24.44
2022-07-30T04:38:21.017Z,24.52
2022-07-30T04:40:49.616Z,24.54
2022-07-30T04:43:19.161Z,24.64
2022-07-30T04:45:47.491Z,24.69
2022-07-30T04:48:15.728Z,24.79
2022-07-30T04:50:47.237Z,24.79
2022-07-30T04:53:16.898Z,24.81
2022-07-30T04:55:48.318Z,24.87
2022-07-30T04:58:21.307Z,24.83
2022-07-30T05:00:52.496Z,25.11
2022-07-30T05:03:22.801Z,25.17
2022-07-30T05:05:57.279Z,25.10
2022-07-30T05:08:27.273Z,25.32
2022-07-30T05:10:56.045Z,25.30
2022-07-30T05:13:27.524Z,25.48
2022-07-30T05:16:03.138Z,25.66
2022-07-30T05:18:31.307Z,25.74
2022-07-30T05:20:59.393Z,25.56
2022-07-30T05:23:27.564Z,25.42
2022-07-30T05:25:55.848Z,25.50
2022-07-30T05:28:26.771Z,25.70
2022-07-30T05:30:56.171Z,25.87
2022-07-30T05:33:40.857Z,26.02
2022-07-30T05:36:09.723Z,26.19
2022-07-30T05:38:37.856Z,26.22
2022-07-30T05:41:05.939Z,26.22
2022-07-30T05:43:57.003Z,26.17
2022-07-30T05:46:25.474Z,26.33
2022-07-30T05:48:53.634Z,26.34
2022-07-30T05:51:22.455Z,26.59
2022-07-30T05:53:51.452Z,26.68
2022-07-30T05:56:19.615Z,26.75
2022-07-30T05:58:48.114Z,26.78
2022-07-30T06:01:17.595Z,26.97
2022-07-30T06:03:45.819Z,26.89
2022-07-30T06:06:14.330Z,26.81
2022-07-30T06:08:44.614Z,26.63
2022-07-30T06:11:13.083Z,26.72
2022-07-30T06:13:41.256Z,26.81
2022-07-30T06:16:09.439Z,26.86
2022-07-30T06:18:38.987Z,26.81
2022-07-30T06:21:07.359Z,26.83
2022-07-30T06:23:35.475Z,26.81
2022-07-30T06:26:03.602Z,27.03
2022-07-30T06:28:39.645Z,26.97
2022-07-30T06:31:08.264Z,27.02
2022-07-30T06:33:36.294Z,27.13
2022-07-30T06:36:06.006Z,27.01
2022-07-30T06:38:34.645Z,27.07
2022-07-30T06:41:04.620Z,27.19
2022-07-30T06:43:32.877Z,27.40
2022-07-30T06:46:01.176Z,27.38
2022-07-30T06:48:32.288Z,27.23
2022-07-30T06:51:00.415Z,27.17
2022-07-30T06:53:30.074Z,27.22
2022-07-30T06:55:58.422Z,27.48
2022-07-30T06:58:29.360Z,27.48
2022-07-30T07:00:57.775Z,27.66
2022-07-30T07:03:40.164Z,27.71
2022-07-30T07:06:08.823Z,27.82
2022-07-30T07:08:39.385Z,27.84
2022-07-30T07:11:07.655Z,27.84
2022-07-30T07:13:35.724Z,27.77
2022-07-30T07:16:04.248Z,27.74
2022-07-30T07:18:45.536Z,27.80
2022-07-30T07:21:13.655Z,27.82
2022-07-30T07:23:42.509Z,27.82
2022-07-30T07:26:12.394Z,27.88
2022-07-30T07:28:41.413Z,28.01
2022-07-30T07:31:10.275Z,28.22
2022-07-30T07:33:39.566Z,28.36
2022-07-30T07:36:09.321Z,28.50
2022-07-30T07:38:37.944Z,28.59
2022-07-30T07:41:06.728Z,28.64
2022-07-30T07:43:35.218Z,28.69
2022-07-30T07:46:03.477Z,28.82
2022-07-30T07:48:31.660Z,28.93
2022-07-30T07:51:00.721Z,28.89
2022-07-30T07:53:30.467Z,28.89
2022-07-30T07:55:59.827Z,28.62
2022-07-30T07:58:29.499Z,28.33
2022-07-30T08:00:59.264Z,28.42
2022-07-30T08:03:27.435Z,28.58
2022-07-30T08:06:05.494Z,28.73
2022-07-30T08:08:37.294Z,28.90
2022-07-30T08:11:07.613Z,29.17
2022-07-30T08:13:51.520Z,29.30
2022-07-30T08:16:21.287Z,29.50
2022-07-30T08:18:49.691Z,29.65
2022-07-30T08:21:17.888Z,29.85
2022-07-30T08:23:48.021Z,29.39
2022-07-30T08:26:16.139Z,29.36
2022-07-30T08:28:45.846Z,29.29
2022-07-30T08:31:14.485Z,29.21
2022-07-30T08:33:42.605Z,29.16
2022-07-30T08:36:10.735Z,29.28
2022-07-30T08:38:39.907Z,29.27
2022-07-30T08:41:10.218Z,29.38
2022-07-30T08:43:38.647Z,29.60
2022-07-30T08:46:11.203Z,29.76
2022-07-30T08:48:40.452Z,29.72
2022-07-30T08:51:09.033Z,29.69
2022-07-30T08:53:37.354Z,29.59
2022-07-30T08:56:07.788Z,29.49
2022-07-30T08:58:38.399Z,29.37
2022-07-30T09:01:07.676Z,29.47
2022-07-30T09:03:44.070Z,29.54
2022-07-30T09:06:13.347Z,29.94
2022-07-30T09:08:42.225Z,30.06
2022-07-30T09:11:10.341Z,29.88
2022-07-30T09:13:41.825Z,29.76
2022-07-30T09:16:21.677Z,29.94
2022-07-30T09:18:50.574Z,30.28
2022-07-30T09:21:22.356Z,30.55
2022-07-30T09:23:58.035Z,30.48
2022-07-30T09:26:26.718Z,30.37
2022-07-30T09:28:57.120Z,30.59
2022-07-30T09:31:25.316Z,30.52
2022-07-30T09:33:53.470Z,30.65
2022-07-30T09:36:22.197Z,30.91
2022-07-30T09:38:51.992Z,31.06
2022-07-30T09:41:39.339Z,31.30
2022-07-30T09:44:09.609Z,31.21
2022-07-30T09:46:47.299Z,31.39
2022-07-30T09:49:17.085Z,31.34
2022-07-30T09:51:56.100Z,30.87
2022-07-30T09:54:50.721Z,30.80
2022-07-30T09:57:26.422Z,30.86
2022-07-30T09:59:59.988Z,30.93
2022-07-30T10:02:32.997Z,30.88
2022-07-30T10:05:14.324Z,31.01
2022-07-30T10:07:51.120Z,31.17
2022-07-30T10:10:25.670Z,31.27
2022-07-30T10:12:58.319Z,31.22
2022-07-30T10:15:30.941Z,31.19
2022-07-30T10:18:02.180Z,31.34
2022-07-30T10:20:35.373Z,31.19
2022-07-30T10:23:08.316Z,31.30
2022-07-30T10:25:49.496Z,31.36
2022-07-30T10:28:23.180Z,31.43
2022-07-30T10:30:55.363Z,31.72
2022-07-30T10:33:35.262Z,32.11
2022-07-30T10:36:06.374Z,32.20
2022-07-30T10:38:41.627Z,32.28
2022-07-30T10:41:22.121Z,32.36
2022-07-30T10:44:24.892Z,32.43
2022-07-30T10:47:07.173Z,32.41
2022-07-30T10:49:41.187Z,32.22
2022-07-30T10:52:12.736Z,31.93
2022-07-30T10:54:44.585Z,31.92
2022-07-30T10:57:22.636Z,31.94
2022-07-30T11:00:13.872Z,32.15
2022-07-30T11:03:18.216Z,32.46
2022-07-30T11:05:50.225Z,32.65
2022-07-30T11:08:35.862Z,32.85
2022-07-30T11:11:19.750Z,32.58
2022-07-30T11:13:53.603Z,32.74
2022-07-30T11:16:23.955Z,32.78
2022-07-30T11:19:55.865Z,32.94
2022-07-30T11:22:29.699Z,33.14
2022-07-30T11:24:59.435Z,33.16
2022-07-30T11:27:41.274Z,32.91
2022-07-30T11:30:35.986Z,32.69
2022-07-30T11:33:33.141Z,32.65
2022-07-30T11:36:11.929Z,32.85
2022-07-30T11:39:05.317Z,33.03
2022-07-30T11:41:35.559Z,33.13
2022-07-30T11:44:31.843Z,33.27
2022-07-30T11:47:00.467Z,33.49
2022-07-30T11:49:36.861Z,33.38
2022-07-30T11:52:07.399Z,33.35
2022-07-30T11:54:54.494Z,33.22
2022-07-30T11:57:40.271Z,33.32
2022-07-30T12:00:09.934Z,33.53
2022-07-30T12:02:38.171Z,33.73
2022-07-30T12:05:08.055Z,33.65
2022-07-30T12:07:37.835Z,33.70
2022-07-30T12:10:17.202Z,33.91
2022-07-30T12:13:07.900Z,33.99
2022-07-30T12:15:37.796Z,34.06
2022-07-30T12:18:24.555Z,34.11
2022-07-30T12:20:59.573Z,34.14
2022-07-30T12:23:30.029Z,34.18
2022-07-30T12:25:59.627Z,34.10
2022-07-30T12:28:31.215Z,34.05
2022-07-30T12:31:00.346Z,34.13
2022-07-30T12:33:28.537Z,34.04
2022-07-30T12:35:58.432Z,34.01
2022-07-30T12:38:29.038Z,33.80
2022-07-30T12:40:59.906Z,33.76
2022-07-30T12:43:49.049Z,33.97
2022-07-30T12:46:19.261Z,33.95
2022-07-30T12:48:51.996Z,34.04
2022-07-30T12:51:21.078Z,34.13
2022-07-30T12:53:51.175Z,34.14
2022-07-30T12:56:20.853Z,34.35
2022-07-30T12:58:48.980Z,34.45
2022-07-30T13:01:19.184Z,34.53
2022-07-30T13:03:48.332Z,34.36
2022-07-30T13:06:18.450Z,33.89
2022-07-30T13:08:49.193Z,33.75
2022-07-30T13:11:19.448Z,33.68
2022-07-30T13:13:47.666Z,33.84
2022-07-30T13:16:16.312Z,33.85
2022-07-30T13:18:44.667Z,34.14
2022-07-30T13:21:12.959Z,34.30
2022-07-30T13:23:42.262Z,34.38
2022-07-30T13:26:12.374Z,34.29
2022-07-30T13:28:42.070Z,34.43
2022-07-30T13:31:11.195Z,34.56
2022-07-30T13:33:40.325Z,34.51
2022-07-30T13:36:09.285Z,34.40
2022-07-30T13:38:37.812Z,34.49
2022-07-30T13:41:06.573Z,34.29
2022-07-30T13:43:34.810Z,34.14
2022-07-30T13:46:04.887Z,34.15
2022-07-30T13:48:33.713Z,34.32
2022-07-30T13:51:03.029Z,34.27
2022-07-30T13:53:31.397Z,34.26
2022-07-30T13:56:00.240Z,34.24
2022-07-30T13:58:31.808Z,34.43
2022-07-30T14:01:07.555Z,34.48
2022-07-30T14:03:35.904Z,34.28
2022-07-30T14:06:10.570Z,34.41
2022-07-30T14:08:39.404Z,34.37
2022-07-30T14:11:07.614Z,34.36
2022-07-30T14:13:35.769Z,34.50
2022-07-30T14:16:13.824Z,34.54
2022-07-30T14:18:51.082Z,34.35
2022-07-30T14:21:19.319Z,34.29
2022-07-30T14:23:47.954Z,34.24
2022-07-30T14:26:16.187Z,34.40
2022-07-30T14:28:44.532Z,34.20
2022-07-30T14:31:14.165Z,34.06
2022-07-30T14:33:42.247Z,34.15
2022-07-30T14:36:10.559Z,34.15
2022-07-30T14:38:39.960Z,34.17
2022-07-30T14:41:08.975Z,34.14
2022-07-30T14:43:37.169Z,34.29
2022-07-30T14:46:05.403Z,34.31
2022-07-30T14:48:34.907Z,34.23
2022-07-30T14:51:15.206Z,34.37
2022-07-30T14:53:47.231Z,34.40
2022-07-30T14:56:17.661Z,34.48
2022-07-30T14:58:46.150Z,34.52
2022-07-30T15:01:16.283Z,34.55
2022-07-30T15:03:46.870Z,34.60
2022-07-30T15:06:16.142Z,34.46
2022-07-30T15:08:46.384Z,34.20
2022-07-30T15:11:14.636Z,34.15
2022-07-30T15:13:50.124Z,34.20
2022-07-30T15:16:19.013Z,34.16
2022-07-30T15:18:49.133Z,34.13
2022-07-30T15:21:17.948Z,34.15
2022-07-30T15:23:46.325Z,34.09
2022-07-30T15:26:14.536Z,34.01
2022-07-30T15:28:42.694Z,33.74
2022-07-30T15:31:10.971Z,33.67
2022-07-30T15:33:42.983Z,33.72
2022-07-30T15:36:13.265Z,33.61
2022-07-30T15:38:41.477Z,33.48
2022-07-30T15:41:13.444Z,33.51
2022-07-30T15:43:42.035Z,33.49
2022-07-30T15:46:10.093Z,33.46
2022-07-30T15:48:38.541Z,33.58
2022-07-30T15:51:06.770Z,33.65
2022-07-30T15:53:36.629Z,33.75
2022-07-30T15:56:05.228Z,33.76
2022-07-30T15:58:33.874Z,33.70
2022-07-30T16:01:02.596Z,33.78
2022-07-30T16:03:30.880Z,33.87
2022-07-30T16:05:59.204Z,33.83
2022-07-30T16:08:27.433Z,34.00
2022-07-30T16:10:57.189Z,34.07
2022-07-30T16:13:25.546Z,34.23
2022-07-30T16:15:53.673Z,34.35
2022-07-30T16:18:21.804Z,34.29
2022-07-30T16:20:51.120Z,34.30
2022-07-30T16:23:21.600Z,34.17
2022-07-30T16:25:50.046Z,34.09
2022-07-30T16:28:19.690Z,34.07
2022-07-30T16:30:50.880Z,33.98
2022-07-30T16:33:20.464Z,33.87
2022-07-30T16:35:51.022Z,33.73
2022-07-30T16:38:19.804Z,33.70
2022-07-30T16:40:48.081Z,33.75
2022-07-30T16:43:19.838Z,33.71
2022-07-30T16:45:50.525Z,33.65
2022-07-30T16:48:19.162Z,33.69
2022-07-30T16:50:47.592Z,33.60
2022-07-30T16:53:15.820Z,33.53
2022-07-30T16:55:44.615Z,33.42
2022-07-30T16:58:13.062Z,33.35
2022-07-30T17:00:41.634Z,33.25
2022-07-30T17:03:11.941Z,33.13
2022-07-30T17:05:48.244Z,33.04
2022-07-30T17:08:17.829Z,32.99
2022-07-30T17:10:46.189Z,32.92
2022-07-30T17:13:16.101Z,32.85
2022-07-30T17:15:46.777Z,32.78
2022-07-30T17:18:17.818Z,32.69
2022-07-30T17:20:46.815Z,32.62
2022-07-30T17:23:15.681Z,32.54
2022-07-30T17:25:43.978Z,32.46
2022-07-30T17:28:12.687Z,32.36
2022-07-30T17:30:41.290Z,32.27
2022-07-30T17:33:09.455Z,32.18
2022-07-30T17:35:39.065Z,32.09
2022-07-30T17:38:07.414Z,31.97
2022-07-30T17:40:35.664Z,31.88
2022-07-30T17:43:07.752Z,31.78
2022-07-30T17:45:37.547Z,31.71
2022-07-30T17:48:06.856Z,31.61
2022-07-30T17:50:36.347Z,31.53
2022-07-30T17:53:06.390Z,31.46
2022-07-30T17:55:35.629Z,31.44
2022-07-30T17:58:04.537Z,31.36
2022-07-30T18:00:34.817Z,31.30
2022-07-30T18:03:03.609Z,31.21
2022-07-30T18:05:31.886Z,31.16
2022-07-30T18:08:00.029Z,31.04
2022-07-30T18:10:29.631Z,30.93
2022-07-30T18:12:59.551Z,30.85
2022-07-30T18:15:48.819Z,30.79
2022-07-30T18:18:17.331Z,30.68
2022-07-30T18:20:48.094Z,30.61
2022-07-30T18:23:19.238Z,30.53
2022-07-30T18:25:51.294Z,30.44
2022-07-30T18:28:20.480Z,30.37
2022-07-30T18:30:49.070Z,30.28
2022-07-30T18:33:17.328Z,30.22
2022-07-30T18:35:45.992Z,30.16
2022-07-30T18:38:14.480Z,30.11
2022-07-30T18:40:42.573Z,30.04
2022-07-30T18:43:13.233Z,29.99
2022-07-30T18:45:41.432Z,29.97
2022-07-30T18:48:09.554Z,29.94
2022-07-30T18:50:37.757Z,29.92
2022-07-30T18:53:15.380Z,29.90
2022-07-30T18:55:44.186Z,29.85
2022-07-30T18:58:14.101Z,29.84
2022-07-30T19:00:44.398Z,29.77
2022-07-30T19:03:17.528Z,29.75
2022-07-30T19:05:49.855Z,29.74
2022-07-30T19:08:17.976Z,29.74
2022-07-30T19:10:46.166Z,29.76
2022-07-30T19:13:15.940Z,29.79
2022-07-30T19:15:44.303Z,29.77
2022-07-30T19:18:12.559Z,29.77
2022-07-30T19:20:40.751Z,29.72
2022-07-30T19:23:09.561Z,29.68
2022-07-30T19:25:39.936Z,29.65
2022-07-30T19:28:09.066Z,29.62
2022-07-30T19:30:38.580Z,29.62
2022-07-30T19:33:13.998Z,29.54
2022-07-30T19:35:43.444Z,29.45
2022-07-30T19:38:21.380Z,29.46
2022-07-30T19:40:50.512Z,29.48
2022-07-30T19:43:24.051Z,29.49
2022-07-30T19:45:54.056Z,29.54
2022-07-30T19:48:28.893Z,29.46
2022-07-30T19:51:00.895Z,29.41
2022-07-30T19:53:31.175Z,29.38
2022-07-30T19:56:08.180Z,29.39
2022-07-30T19:58:40.097Z,29.42
2022-07-30T20:01:12.308Z,29.45
2022-07-30T20:03:40.673Z,29.39
2022-07-30T20:06:14.710Z,29.32
2022-07-30T20:08:44.843Z,29.25
2022-07-30T20:11:21.064Z,29.19
2022-07-30T20:16:51.051Z,28.83
2022-07-30T20:19:20.166Z,28.76
2022-07-30T20:21:56.717Z,28.77
2022-07-30T20:24:25.694Z,28.79
2022-07-30T20:26:53.876Z,28.88
2022-07-30T20:29:22.007Z,28.98
2022-07-30T20:31:52.165Z,29.01
2022-07-30T20:34:25.984Z,29.04
2022-07-30T20:36:56.607Z,29.01
2022-07-30T20:39:25.312Z,29.01
2022-07-30T20:42:07.910Z,29.05
2022-07-30T20:44:38.015Z,29.08
2022-07-30T20:49:56.604Z,28.80
2022-07-30T20:52:24.785Z,28.50
2022-07-30T20:54:52.937Z,28.09
2022-07-30T20:57:57.258Z,27.81
2022-07-30T21:00:10.464Z,26.98
2022-07-30T21:02:42.076Z,26.49
2022-07-30T21:05:18.024Z,25.84
2022-07-30T21:07:52.898Z,25.08
2022-07-30T21:10:23.739Z,24.38
2022-07-30T21:13:03.033Z,23.71
2022-07-30T21:15:33.234Z,23.37
2022-07-30T21:18:03.892Z,23.07
2022-07-30T21:20:32.909Z,22.92
2022-07-30T21:23:10.148Z,22.77
2022-07-30T21:26:02.095Z,22.67
2022-07-30T21:28:28.492Z,22.57
2022-07-30T21:30:57.395Z,22.48
2022-07-30T21:33:31.707Z,22.44
2022-07-30T21:36:00.292Z,22.44
2022-07-30T21:38:28.774Z,22.39
2022-07-30T21:41:00.351Z,22.18
2022-07-30T21:43:30.556Z,22.10
2022-07-30T21:46:03.794Z,22.00
2022-07-30T21:48:36.107Z,21.98
2022-07-30T21:51:04.510Z,21.95
2022-07-30T21:53:46.049Z,21.97
2022-07-30T21:56:16.338Z,21.92
2022-07-30T21:58:46.038Z,21.97
2022-07-30T22:01:21.830Z,21.88
2022-07-30T22:04:04.502Z,21.92
2022-07-30T22:06:38.529Z,22.00
2022-07-30T22:09:18.974Z,22.12
2022-07-30T22:14:48.745Z,22.52
2022-07-30T22:17:23.670Z,22.66
2022-07-30T22:20:08.653Z,22.80
2022-07-30T22:22:40.182Z,22.90
2022-07-30T22:25:10.143Z,22.95
2022-07-30T22:27:40.163Z,22.94
2022-07-30T22:30:26.397Z,22.99
2022-07-30T22:32:54.661Z,22.98
2022-07-30T22:35:33.405Z,23.02
2022-07-30T22:38:02.963Z,23.02
2022-07-30T22:40:31.249Z,23.01
2022-07-30T22:42:59.714Z,23.02
2022-07-30T22:45:46.657Z,23.08
2022-07-30T22:48:20.709Z,23.09
2022-07-30T22:50:55.693Z,23.04
2022-07-30T22:54:02.947Z,23.06
2022-07-30T22:56:15.376Z,23.07
2022-07-30T22:58:44.893Z,23.14
2022-07-30T23:01:16.808Z,23.12
2022-07-30T23:03:45.216Z,23.15
2022-07-30T23:06:17.669Z,23.13
2022-07-30T23:08:48.808Z,23.12
2022-07-30T23:11:16.974Z,23.12
2022-07-30T23:12:19.584Z,29.06
2022-07-30T23:12:28.379Z,22.36
2022-07-30T23:13:45.117Z,23.06
2022-07-30T23:16:13.373Z,23.05
2022-07-30T23:18:41.555Z,23.03
2022-07-30T23:21:10.027Z,23.00
2022-07-30T23:23:40.147Z,23.01
2022-07-30T23:26:08.977Z,22.85
2022-07-30T23:28:37.826Z,22.81
2022-07-30T23:31:07.278Z,22.82
2022-07-30T23:33:35.391Z,22.80
2022-07-30T23:36:06.165Z,22.78
2022-07-30T23:38:34.529Z,22.90
2022-07-30T23:41:05.861Z,22.84
2022-07-30T23:43:34.020Z,22.62
2022-07-30T23:46:02.308Z,22.31
2022-07-30T23:48:31.721Z,22.14
2022-07-30T23:51:00.058Z,21.97
2022-07-30T23:53:28.275Z,21.95
2022-07-30T23:55:56.430Z,21.92
2022-07-30T23:58:26.248Z,21.97
